TRA11C EHEH-LGZA
Flight info
| Callsign | TRA11C |
|---|---|
| Flight time | 2h 35m |
| Altitude | 35000 |
| Route | VELNI2J VELNI DCT ONUNE DCT GMH DCT NEGIX DCT DINKU M867 XERUM DCT BAVAX DCT RADIZ DCT GORPA DCT NIVES DCT NAVSU DCT TAZ DCT RODON DCT LIMJA DCT PITAS/N0421F330 UN732 KRK UT321 ASTUS ASTUS2C |
| Aircraft | A21N/M-SDE2E3FGHIJ1RWXY/LB1 |
Departure
| Time | 2026-04-22 10:55 |
|---|---|
| Airport | Eindhoven Airport (EHEH) |
Arrival
| Time | 2026-04-22 13:31 |
|---|---|
| Airport | Zakynthos International Airport Dionysios Solomos (LGZA) |
| Time | Latitude | Longitude | Altitude | Speed | Heading |
|---|---|---|---|---|---|
| 2026-04-22 10:22 | 51.45821 | 5.39017 | 75 ft | 0 kts | 125° |
| 2026-04-22 10:44 | 51.45833 | 5.38990 | 68 ft | 4 kts | 125° |
| 2026-04-22 10:44 | 51.45848 | 5.38956 | 66 ft | 2 kts | 125° |
| 2026-04-22 10:45 | 51.45862 | 5.38933 | 64 ft | 4 kts | 176° |
| 2026-04-22 10:45 | 51.45887 | 5.38942 | 65 ft | 4 kts | 210° |
| 2026-04-22 10:45 | 51.45895 | 5.38949 | 64 ft | 1 kts | 215° |
| 2026-04-22 10:48 | 51.45868 | 5.38919 | 59 ft | 8 kts | 215° |
| 2026-04-22 10:48 | 51.45817 | 5.38862 | 75 ft | 8 kts | 215° |
| 2026-04-22 10:48 | 51.45795 | 5.38793 | 67 ft | 8 kts | 276° |
| 2026-04-22 10:48 | 51.45824 | 5.38708 | 70 ft | 10 kts | 304° |
| 2026-04-22 10:49 | 51.45866 | 5.38609 | 65 ft | 12 kts | 306° |
| 2026-04-22 10:49 | 51.45910 | 5.38512 | 74 ft | 9 kts | 306° |
| 2026-04-22 10:49 | 51.45946 | 5.38431 | 77 ft | 10 kts | 306° |
| 2026-04-22 10:49 | 51.45988 | 5.38332 | 67 ft | 11 kts | 295° |
| 2026-04-22 10:50 | 51.45960 | 5.38234 | 67 ft | 12 kts | 219° |
| 2026-04-22 10:50 | 51.45875 | 5.38136 | 69 ft | 18 kts | 216° |
| 2026-04-22 10:50 | 51.45756 | 5.38003 | 69 ft | 24 kts | 214° |
| 2026-04-22 10:50 | 51.45604 | 5.37835 | 69 ft | 28 kts | 215° |
| 2026-04-22 10:51 | 51.45446 | 5.37658 | 69 ft | 27 kts | 214° |
| 2026-04-22 10:51 | 51.45293 | 5.37489 | 70 ft | 26 kts | 215° |
| 2026-04-22 10:51 | 51.45148 | 5.37324 | 67 ft | 25 kts | 216° |
| 2026-04-22 10:51 | 51.45009 | 5.37168 | 72 ft | 24 kts | 214° |
| 2026-04-22 10:52 | 51.44877 | 5.37022 | 71 ft | 22 kts | 215° |
| 2026-04-22 10:52 | 51.44752 | 5.36880 | 70 ft | 21 kts | 216° |
| 2026-04-22 10:52 | 51.44633 | 5.36747 | 71 ft | 20 kts | 215° |
| 2026-04-22 10:52 | 51.44520 | 5.36620 | 70 ft | 19 kts | 215° |
| 2026-04-22 10:53 | 51.44413 | 5.36502 | 67 ft | 18 kts | 214° |
| 2026-04-22 10:53 | 51.44315 | 5.36391 | 70 ft | 17 kts | 215° |
| 2026-04-22 10:53 | 51.44224 | 5.36289 | 68 ft | 15 kts | 215° |
| 2026-04-22 10:53 | 51.44140 | 5.36196 | 64 ft | 14 kts | 215° |
| 2026-04-22 10:54 | 51.44064 | 5.36109 | 68 ft | 13 kts | 215° |
| 2026-04-22 10:54 | 51.43986 | 5.36094 | 67 ft | 11 kts | 150° |
| 2026-04-22 10:54 | 51.43938 | 5.36188 | 71 ft | 10 kts | 122° |
| 2026-04-22 10:54 | 51.43951 | 5.36259 | 68 ft | 6 kts | 44° |
| 2026-04-22 10:55 | 51.44024 | 5.36342 | 75 ft | 36 kts | 35° |
| 2026-04-22 10:55 | 51.44487 | 5.36861 | 71 ft | 122 kts | 34° |
| 2026-04-22 10:55 | 51.45365 | 5.37837 | 144 ft | 178 kts | 38° |
| 2026-04-22 10:55 | 51.46412 | 5.39009 | 860 ft | 183 kts | 37° |
| 2026-04-22 10:56 | 51.47455 | 5.40179 | 1753 ft | 183 kts | 37° |
| 2026-04-22 10:56 | 51.48538 | 5.41398 | 2054 ft | 200 kts | 38° |
| 2026-04-22 10:56 | 51.49728 | 5.42739 | 2364 ft | 215 kts | 37° |
| 2026-04-22 10:56 | 51.50889 | 5.44263 | 3050 ft | 215 kts | 57° |
| 2026-04-22 10:57 | 51.51368 | 5.46453 | 3733 ft | 214 kts | 91° |
| 2026-04-22 10:57 | 51.51065 | 5.48787 | 4473 ft | 215 kts | 105° |
| 2026-04-22 10:57 | 51.50642 | 5.51101 | 5218 ft | 217 kts | 105° |
| 2026-04-22 10:57 | 51.50216 | 5.53432 | 5950 ft | 219 kts | 104° |
| 2026-04-22 10:58 | 51.49789 | 5.55788 | 6647 ft | 221 kts | 104° |
| 2026-04-22 10:58 | 51.49367 | 5.58175 | 7285 ft | 225 kts | 103° |
| 2026-04-22 10:58 | 51.48987 | 5.60740 | 7536 ft | 247 kts | 101° |
| 2026-04-22 10:58 | 51.48616 | 5.63494 | 8052 ft | 256 kts | 101° |
| 2026-04-22 10:59 | 51.48440 | 5.66346 | 8724 ft | 260 kts | 86° |
| 2026-04-22 10:59 | 51.48671 | 5.69236 | 9431 ft | 263 kts | 82° |
| 2026-04-22 10:59 | 51.48920 | 5.72161 | 10145 ft | 266 kts | 83° |
| 2026-04-22 10:59 | 51.49164 | 5.75134 | 10689 ft | 275 kts | 83° |
| 2026-04-22 11:00 | 51.49418 | 5.78307 | 10834 ft | 298 kts | 83° |
| 2026-04-22 11:00 | 51.49688 | 5.81720 | 11001 ft | 317 kts | 83° |
| 2026-04-22 11:00 | 51.49967 | 5.85285 | 11485 ft | 325 kts | 83° |
| 2026-04-22 11:00 | 51.50154 | 5.87680 | 11898 ft | 327 kts | 83° |
| 2026-04-22 11:01 | 51.50438 | 5.91317 | 12547 ft | 330 kts | 83° |
| 2026-04-22 11:01 | 51.50727 | 5.94995 | 13187 ft | 334 kts | 83° |
| 2026-04-22 11:01 | 51.51111 | 5.99929 | 14059 ft | 338 kts | 83° |
| 2026-04-22 11:01 | 51.51308 | 6.02462 | 14461 ft | 340 kts | 83° |
| 2026-04-22 11:02 | 51.51601 | 6.06250 | 15058 ft | 342 kts | 82° |
| 2026-04-22 11:02 | 51.51893 | 6.10054 | 15653 ft | 345 kts | 82° |
| 2026-04-22 11:02 | 51.52188 | 6.13889 | 16244 ft | 347 kts | 82° |
| 2026-04-22 11:02 | 51.52472 | 6.17745 | 16829 ft | 349 kts | 85° |
| 2026-04-22 11:03 | 51.52438 | 6.21660 | 17396 ft | 353 kts | 95° |
| 2026-04-22 11:03 | 51.51995 | 6.25554 | 17961 ft | 356 kts | 99° |
| 2026-04-22 11:03 | 51.51505 | 6.29410 | 18530 ft | 358 kts | 99° |
| 2026-04-22 11:03 | 51.51008 | 6.33350 | 19032 ft | 360 kts | 99° |
| 2026-04-22 11:04 | 51.50511 | 6.37310 | 19518 ft | 363 kts | 99° |
| 2026-04-22 11:04 | 51.50011 | 6.41287 | 20005 ft | 365 kts | 99° |
| 2026-04-22 11:04 | 51.49510 | 6.45282 | 20474 ft | 367 kts | 99° |
| 2026-04-22 11:04 | 51.49003 | 6.49314 | 20952 ft | 369 kts | 99° |
| 2026-04-22 11:05 | 51.48493 | 6.53359 | 21426 ft | 371 kts | 99° |
| 2026-04-22 11:05 | 51.47978 | 6.57427 | 21890 ft | 373 kts | 99° |
| 2026-04-22 11:05 | 51.47460 | 6.61516 | 22354 ft | 375 kts | 99° |
| 2026-04-22 11:05 | 51.46936 | 6.65634 | 22805 ft | 377 kts | 99° |
| 2026-04-22 11:06 | 51.46406 | 6.69763 | 23260 ft | 379 kts | 99° |
| 2026-04-22 11:06 | 51.45871 | 6.73914 | 23719 ft | 382 kts | 98° |
| 2026-04-22 11:06 | 51.45330 | 6.78097 | 24147 ft | 383 kts | 98° |
| 2026-04-22 11:06 | 51.44784 | 6.82285 | 24505 ft | 386 kts | 98° |
| 2026-04-22 11:07 | 51.44234 | 6.86511 | 24845 ft | 388 kts | 98° |
| 2026-04-22 11:07 | 51.43687 | 6.90697 | 25174 ft | 391 kts | 98° |
| 2026-04-22 11:07 | 51.43127 | 6.94974 | 25500 ft | 393 kts | 98° |
| 2026-04-22 11:07 | 51.42564 | 6.99281 | 25831 ft | 396 kts | 98° |
| 2026-04-22 11:08 | 51.41991 | 7.03660 | 26159 ft | 399 kts | 99° |
| 2026-04-22 11:08 | 51.41425 | 7.07977 | 26479 ft | 401 kts | 99° |
| 2026-04-22 11:08 | 51.40845 | 7.12369 | 26791 ft | 404 kts | 99° |
| 2026-04-22 11:08 | 51.40258 | 7.16789 | 27111 ft | 407 kts | 99° |
| 2026-04-22 11:09 | 51.39667 | 7.21232 | 27443 ft | 409 kts | 99° |
| 2026-04-22 11:09 | 51.39072 | 7.25694 | 27761 ft | 411 kts | 99° |
| 2026-04-22 11:09 | 51.38467 | 7.30189 | 28065 ft | 414 kts | 99° |
| 2026-04-22 11:09 | 51.37858 | 7.34703 | 28360 ft | 416 kts | 99° |
| 2026-04-22 11:10 | 51.37153 | 7.39214 | 28643 ft | 421 kts | 105° |
| 2026-04-22 11:10 | 51.36018 | 7.43567 | 28914 ft | 428 kts | 114° |
| 2026-04-22 11:10 | 51.34455 | 7.47649 | 29174 ft | 433 kts | 120° |
| 2026-04-22 11:10 | 51.32776 | 7.51671 | 29457 ft | 436 kts | 120° |
| 2026-04-22 11:11 | 51.31085 | 7.55715 | 29662 ft | 439 kts | 120° |
| 2026-04-22 11:11 | 51.29385 | 7.59790 | 29927 ft | 442 kts | 120° |
| 2026-04-22 11:11 | 51.27677 | 7.63886 | 30168 ft | 444 kts | 120° |
| 2026-04-22 11:11 | 51.25963 | 7.67989 | 30531 ft | 444 kts | 121° |
| 2026-04-22 11:12 | 51.24249 | 7.72084 | 30849 ft | 444 kts | 121° |
| 2026-04-22 11:12 | 51.22533 | 7.76179 | 31170 ft | 444 kts | 121° |
| 2026-04-22 11:12 | 51.20816 | 7.80266 | 31475 ft | 444 kts | 121° |
| 2026-04-22 11:12 | 51.19048 | 7.84309 | 31772 ft | 446 kts | 126° |
| 2026-04-22 11:13 | 51.16943 | 7.87974 | 32059 ft | 450 kts | 134° |
| 2026-04-22 11:13 | 51.14485 | 7.91089 | 32342 ft | 454 kts | 143° |
| 2026-04-22 11:13 | 51.11734 | 7.93594 | 32631 ft | 457 kts | 150° |
| 2026-04-22 11:13 | 51.08908 | 7.95898 | 32947 ft | 457 kts | 150° |
| 2026-04-22 11:14 | 51.06075 | 7.98208 | 33244 ft | 458 kts | 150° |
| 2026-04-22 11:14 | 51.03234 | 8.00526 | 33483 ft | 459 kts | 150° |
| 2026-04-22 11:14 | 51.00395 | 8.02842 | 33749 ft | 460 kts | 150° |
| 2026-04-22 11:14 | 50.97549 | 8.05164 | 34065 ft | 460 kts | 150° |
| 2026-04-22 11:15 | 50.94744 | 8.07453 | 34363 ft | 459 kts | 150° |
| 2026-04-22 11:15 | 50.91866 | 8.09802 | 34601 ft | 459 kts | 150° |
| 2026-04-22 11:15 | 50.89023 | 8.12118 | 34826 ft | 460 kts | 150° |
| 2026-04-22 11:15 | 50.86215 | 8.14398 | 35035 ft | 460 kts | 151° |
| 2026-04-22 11:16 | 50.83362 | 8.16708 | 35235 ft | 461 kts | 151° |
| 2026-04-22 11:16 | 50.77663 | 8.21318 | 35331 ft | 459 kts | 151° |
| 2026-04-22 11:17 | 50.71981 | 8.25891 | 35328 ft | 458 kts | 151° |
| 2026-04-22 11:17 | 50.66302 | 8.30441 | 35335 ft | 457 kts | 151° |
| 2026-04-22 11:18 | 50.60629 | 8.35000 | 35361 ft | 457 kts | 151° |
| 2026-04-22 11:18 | 50.54964 | 8.39550 | 35377 ft | 458 kts | 151° |
| 2026-04-22 11:19 | 50.49280 | 8.44081 | 35368 ft | 458 kts | 151° |
| 2026-04-22 11:19 | 50.43592 | 8.48593 | 35361 ft | 458 kts | 151° |
| 2026-04-22 11:20 | 50.38068 | 8.53532 | 35348 ft | 455 kts | 140° |
| 2026-04-22 11:20 | 50.33554 | 8.60369 | 35339 ft | 451 kts | 130° |
| 2026-04-22 11:21 | 50.29267 | 8.67568 | 35326 ft | 453 kts | 131° |
| 2026-04-22 11:21 | 50.24950 | 8.74750 | 35315 ft | 454 kts | 131° |
| 2026-04-22 11:22 | 50.20626 | 8.81947 | 35313 ft | 454 kts | 131° |
| 2026-04-22 11:22 | 50.16294 | 8.89137 | 35314 ft | 455 kts | 131° |
| 2026-04-22 11:23 | 50.11954 | 8.96320 | 35318 ft | 455 kts | 131° |
| 2026-04-22 11:23 | 50.07637 | 9.03454 | 35321 ft | 456 kts | 131° |
| 2026-04-22 11:24 | 50.03280 | 9.10626 | 35306 ft | 456 kts | 131° |
| 2026-04-22 11:24 | 49.98906 | 9.17800 | 35298 ft | 457 kts | 131° |
| 2026-04-22 11:25 | 49.94521 | 9.24975 | 35297 ft | 458 kts | 131° |
| 2026-04-22 11:25 | 49.90125 | 9.32151 | 35299 ft | 459 kts | 131° |
| 2026-04-22 11:26 | 49.85722 | 9.39313 | 35301 ft | 459 kts | 131° |
| 2026-04-22 11:26 | 49.81322 | 9.46469 | 35298 ft | 459 kts | 131° |
| 2026-04-22 11:27 | 49.76908 | 9.53625 | 35312 ft | 460 kts | 131° |
| 2026-04-22 11:27 | 49.72476 | 9.60759 | 35306 ft | 460 kts | 131° |
| 2026-04-22 11:28 | 49.68039 | 9.67896 | 35302 ft | 461 kts | 131° |
| 2026-04-22 11:28 | 49.63597 | 9.75030 | 35303 ft | 461 kts | 131° |
| 2026-04-22 11:29 | 49.59150 | 9.82152 | 35302 ft | 461 kts | 132° |
| 2026-04-22 11:29 | 49.54684 | 9.89262 | 35304 ft | 461 kts | 132° |
| 2026-04-22 11:30 | 49.50222 | 9.96367 | 35309 ft | 462 kts | 132° |
| 2026-04-22 11:30 | 49.45777 | 10.03429 | 35301 ft | 463 kts | 132° |
| 2026-04-22 11:31 | 49.40887 | 10.09854 | 35300 ft | 465 kts | 142° |
| 2026-04-22 11:31 | 49.35690 | 10.15763 | 35298 ft | 465 kts | 142° |
| 2026-04-22 11:32 | 49.30483 | 10.21670 | 35303 ft | 465 kts | 142° |
| 2026-04-22 11:32 | 49.25267 | 10.27558 | 35317 ft | 466 kts | 142° |
| 2026-04-22 11:33 | 49.20027 | 10.33445 | 35333 ft | 467 kts | 142° |
| 2026-04-22 11:33 | 49.14786 | 10.39321 | 35326 ft | 467 kts | 142° |
| 2026-04-22 11:34 | 49.09581 | 10.45156 | 35318 ft | 467 kts | 142° |
| 2026-04-22 11:34 | 49.04333 | 10.51024 | 35325 ft | 468 kts | 142° |
| 2026-04-22 11:35 | 48.99083 | 10.56886 | 35315 ft | 468 kts | 142° |
| 2026-04-22 11:35 | 48.93812 | 10.62736 | 35330 ft | 469 kts | 142° |
| 2026-04-22 11:36 | 48.88540 | 10.68574 | 35319 ft | 469 kts | 142° |
| 2026-04-22 11:36 | 48.83255 | 10.74411 | 35317 ft | 469 kts | 142° |
| 2026-04-22 11:37 | 48.78523 | 10.81135 | 35302 ft | 466 kts | 130° |
| 2026-04-22 11:37 | 48.74180 | 10.88461 | 35288 ft | 467 kts | 130° |
| 2026-04-22 11:38 | 48.69808 | 10.95768 | 35307 ft | 468 kts | 130° |
| 2026-04-22 11:38 | 48.63265 | 11.06663 | 35303 ft | 468 kts | 130° |
| 2026-04-22 11:39 | 48.58886 | 11.13953 | 35300 ft | 468 kts | 130° |
| 2026-04-22 11:39 | 48.54499 | 11.21235 | 35298 ft | 468 kts | 130° |
| 2026-04-22 11:40 | 48.50111 | 11.28497 | 35273 ft | 469 kts | 130° |
| 2026-04-22 11:40 | 48.45707 | 11.35763 | 35286 ft | 469 kts | 130° |
| 2026-04-22 11:41 | 48.41287 | 11.43022 | 35287 ft | 470 kts | 130° |
| 2026-04-22 11:41 | 48.36869 | 11.50269 | 35286 ft | 470 kts | 130° |
| 2026-04-22 11:42 | 48.32447 | 11.57505 | 35294 ft | 470 kts | 130° |
| 2026-04-22 11:42 | 48.28015 | 11.64728 | 35311 ft | 470 kts | 130° |
| 2026-04-22 11:43 | 48.23458 | 11.71785 | 35316 ft | 471 kts | 134° |
| 2026-04-22 11:43 | 48.18612 | 11.78399 | 35310 ft | 471 kts | 137° |
| 2026-04-22 11:44 | 48.13723 | 11.84844 | 35300 ft | 471 kts | 136° |
| 2026-04-22 11:44 | 48.08860 | 11.91395 | 35286 ft | 470 kts | 136° |
| 2026-04-22 11:45 | 48.04044 | 11.98006 | 35272 ft | 470 kts | 135° |
| 2026-04-22 11:45 | 47.99228 | 12.04610 | 35269 ft | 470 kts | 136° |
| 2026-04-22 11:46 | 47.94394 | 12.11189 | 35256 ft | 471 kts | 136° |
| 2026-04-22 11:46 | 47.89535 | 12.17746 | 35247 ft | 471 kts | 136° |
| 2026-04-22 11:47 | 47.84670 | 12.24311 | 35249 ft | 472 kts | 136° |
| 2026-04-22 11:47 | 47.80629 | 12.29767 | 35242 ft | 472 kts | 136° |
| 2026-04-22 11:48 | 47.75745 | 12.36329 | 35231 ft | 473 kts | 136° |
| 2026-04-22 11:48 | 47.70852 | 12.42890 | 35219 ft | 474 kts | 136° |
| 2026-04-22 11:49 | 47.65949 | 12.49440 | 35222 ft | 475 kts | 136° |
| 2026-04-22 11:49 | 47.61167 | 12.56190 | 35225 ft | 474 kts | 130° |
| 2026-04-22 11:50 | 47.56687 | 12.63370 | 35251 ft | 475 kts | 130° |
| 2026-04-22 11:50 | 47.52197 | 12.70552 | 35252 ft | 475 kts | 130° |
| 2026-04-22 11:51 | 47.47687 | 12.77720 | 35234 ft | 476 kts | 131° |
| 2026-04-22 11:51 | 47.43165 | 12.84881 | 35227 ft | 477 kts | 131° |
| 2026-04-22 11:52 | 47.38631 | 12.92053 | 35224 ft | 478 kts | 131° |
| 2026-04-22 11:52 | 47.34086 | 12.99225 | 35252 ft | 478 kts | 131° |
| 2026-04-22 11:53 | 47.29568 | 13.06330 | 35250 ft | 478 kts | 131° |
| 2026-04-22 11:53 | 47.25020 | 13.13460 | 35246 ft | 477 kts | 131° |
| 2026-04-22 11:54 | 47.20463 | 13.20575 | 35230 ft | 478 kts | 131° |
| 2026-04-22 11:54 | 47.15884 | 13.27713 | 35219 ft | 480 kts | 131° |
| 2026-04-22 11:55 | 47.11307 | 13.34847 | 35238 ft | 480 kts | 131° |
| 2026-04-22 11:55 | 47.06724 | 13.41968 | 35222 ft | 480 kts | 131° |
| 2026-04-22 11:56 | 47.02126 | 13.49079 | 35213 ft | 480 kts | 131° |
| 2026-04-22 11:56 | 46.97530 | 13.56178 | 35184 ft | 480 kts | 131° |
| 2026-04-22 11:57 | 46.92929 | 13.63278 | 35207 ft | 481 kts | 132° |
| 2026-04-22 11:57 | 46.88308 | 13.70366 | 35200 ft | 481 kts | 132° |
| 2026-04-22 11:58 | 46.83684 | 13.77432 | 35200 ft | 481 kts | 132° |
| 2026-04-22 11:58 | 46.79063 | 13.84493 | 35197 ft | 481 kts | 132° |
| 2026-04-22 11:59 | 46.74433 | 13.91548 | 35197 ft | 481 kts | 132° |
| 2026-04-22 11:59 | 46.69820 | 13.98548 | 35197 ft | 482 kts | 133° |
| 2026-04-22 12:00 | 46.65174 | 14.05589 | 35189 ft | 482 kts | 132° |
| 2026-04-22 12:00 | 46.60526 | 14.12615 | 35213 ft | 482 kts | 133° |
| 2026-04-22 12:01 | 46.55867 | 14.19633 | 35220 ft | 482 kts | 133° |
| 2026-04-22 12:01 | 46.51200 | 14.26649 | 35240 ft | 482 kts | 133° |
| 2026-04-22 12:02 | 46.46535 | 14.33640 | 35212 ft | 482 kts | 133° |
| 2026-04-22 12:02 | 46.41888 | 14.40590 | 35202 ft | 483 kts | 133° |
| 2026-04-22 12:03 | 46.37201 | 14.47579 | 35187 ft | 484 kts | 133° |
| 2026-04-22 12:03 | 46.32508 | 14.54571 | 35190 ft | 484 kts | 133° |
| 2026-04-22 12:04 | 46.27811 | 14.61547 | 35215 ft | 484 kts | 134° |
| 2026-04-22 12:04 | 46.23111 | 14.68498 | 35217 ft | 483 kts | 134° |
| 2026-04-22 12:05 | 46.18401 | 14.75449 | 35187 ft | 484 kts | 134° |
| 2026-04-22 12:05 | 46.13674 | 14.82399 | 35190 ft | 486 kts | 134° |
| 2026-04-22 12:06 | 46.08935 | 14.89351 | 35215 ft | 486 kts | 134° |
| 2026-04-22 12:06 | 46.04193 | 14.96297 | 35225 ft | 486 kts | 134° |
| 2026-04-22 12:07 | 45.99487 | 15.03185 | 35228 ft | 486 kts | 134° |
| 2026-04-22 12:07 | 45.94709 | 15.10146 | 35200 ft | 486 kts | 134° |
| 2026-04-22 12:08 | 45.89944 | 15.17062 | 35216 ft | 487 kts | 135° |
| 2026-04-22 12:08 | 45.85202 | 15.23929 | 35218 ft | 488 kts | 135° |
| 2026-04-22 12:09 | 45.80411 | 15.30848 | 35223 ft | 488 kts | 135° |
| 2026-04-22 12:09 | 45.75364 | 15.37329 | 35223 ft | 487 kts | 146° |
| 2026-04-22 12:10 | 45.69836 | 15.42946 | 35217 ft | 487 kts | 145° |
| 2026-04-22 12:10 | 45.64306 | 15.48566 | 35215 ft | 488 kts | 145° |
| 2026-04-22 12:11 | 45.58772 | 15.54185 | 35220 ft | 488 kts | 145° |
| 2026-04-22 12:11 | 45.53234 | 15.59791 | 35217 ft | 488 kts | 145° |
| 2026-04-22 12:12 | 45.47689 | 15.65386 | 35199 ft | 488 kts | 146° |
| 2026-04-22 12:12 | 45.42169 | 15.70932 | 35219 ft | 488 kts | 146° |
| 2026-04-22 12:13 | 45.36615 | 15.76503 | 35219 ft | 488 kts | 146° |
| 2026-04-22 12:13 | 45.31064 | 15.82085 | 35217 ft | 488 kts | 146° |
| 2026-04-22 12:14 | 45.25517 | 15.87641 | 35215 ft | 488 kts | 146° |
| 2026-04-22 12:14 | 45.20320 | 15.93817 | 35189 ft | 489 kts | 133° |
| 2026-04-22 12:15 | 45.15642 | 16.00838 | 35210 ft | 490 kts | 133° |
| 2026-04-22 12:15 | 45.10955 | 16.07840 | 35214 ft | 490 kts | 134° |
| 2026-04-22 12:16 | 45.06243 | 16.14843 | 35215 ft | 490 kts | 134° |
| 2026-04-22 12:16 | 45.01527 | 16.21818 | 35212 ft | 490 kts | 134° |
| 2026-04-22 12:17 | 44.96819 | 16.28781 | 35199 ft | 490 kts | 134° |
| 2026-04-22 12:17 | 44.92133 | 16.35709 | 35196 ft | 491 kts | 134° |
| 2026-04-22 12:18 | 44.87404 | 16.42666 | 35195 ft | 492 kts | 134° |
| 2026-04-22 12:18 | 44.82663 | 16.49625 | 35201 ft | 492 kts | 134° |
| 2026-04-22 12:19 | 44.77919 | 16.56576 | 35210 ft | 492 kts | 134° |
| 2026-04-22 12:19 | 44.73173 | 16.63505 | 35186 ft | 492 kts | 134° |
| 2026-04-22 12:20 | 44.68420 | 16.70425 | 35178 ft | 492 kts | 134° |
| 2026-04-22 12:20 | 44.63666 | 16.77349 | 35181 ft | 492 kts | 134° |
| 2026-04-22 12:21 | 44.58903 | 16.84268 | 35198 ft | 493 kts | 135° |
| 2026-04-22 12:21 | 44.53926 | 16.90823 | 35192 ft | 491 kts | 146° |
| 2026-04-22 12:22 | 44.48178 | 16.95946 | 35166 ft | 489 kts | 150° |
| 2026-04-22 12:22 | 44.42396 | 17.00994 | 35164 ft | 490 kts | 150° |
| 2026-04-22 12:23 | 44.36646 | 17.06024 | 35162 ft | 491 kts | 150° |
| 2026-04-22 12:23 | 44.30852 | 17.11059 | 35173 ft | 491 kts | 150° |
| 2026-04-22 12:24 | 44.25043 | 17.16077 | 35151 ft | 491 kts | 150° |
| 2026-04-22 12:24 | 44.19230 | 17.21097 | 35138 ft | 492 kts | 150° |
| 2026-04-22 12:25 | 44.13413 | 17.26124 | 35131 ft | 492 kts | 150° |
| 2026-04-22 12:25 | 44.07589 | 17.31145 | 35135 ft | 492 kts | 151° |
| 2026-04-22 12:26 | 44.01767 | 17.36148 | 35099 ft | 492 kts | 151° |
| 2026-04-22 12:26 | 43.95936 | 17.41144 | 35086 ft | 492 kts | 151° |
| 2026-04-22 12:27 | 43.90098 | 17.46125 | 35091 ft | 493 kts | 151° |
| 2026-04-22 12:27 | 43.84252 | 17.51101 | 35077 ft | 492 kts | 151° |
| 2026-04-22 12:28 | 43.78453 | 17.56040 | 35053 ft | 492 kts | 152° |
| 2026-04-22 12:28 | 43.72616 | 17.60993 | 35066 ft | 492 kts | 152° |
| 2026-04-22 12:29 | 43.66767 | 17.65941 | 35045 ft | 493 kts | 152° |
| 2026-04-22 12:29 | 43.60923 | 17.70878 | 35031 ft | 492 kts | 152° |
| 2026-04-22 12:30 | 43.52154 | 17.78265 | 35021 ft | 493 kts | 152° |
| 2026-04-22 12:31 | 43.46291 | 17.83183 | 35021 ft | 494 kts | 152° |
| 2026-04-22 12:31 | 43.40421 | 17.88104 | 35026 ft | 494 kts | 152° |
| 2026-04-22 12:32 | 43.34550 | 17.93023 | 35027 ft | 494 kts | 152° |
| 2026-04-22 12:32 | 43.25738 | 18.00376 | 35030 ft | 494 kts | 153° |
| 2026-04-22 12:33 | 43.20851 | 18.04441 | 35025 ft | 494 kts | 153° |
| 2026-04-22 12:33 | 43.14970 | 18.09318 | 34987 ft | 494 kts | 153° |
| 2026-04-22 12:34 | 43.09078 | 18.14182 | 34985 ft | 494 kts | 153° |
| 2026-04-22 12:34 | 43.03189 | 18.19043 | 34979 ft | 495 kts | 153° |
| 2026-04-22 12:35 | 42.97328 | 18.23875 | 34979 ft | 495 kts | 153° |
| 2026-04-22 12:35 | 42.91396 | 18.28759 | 34967 ft | 495 kts | 153° |
| 2026-04-22 12:36 | 42.85521 | 18.33583 | 34982 ft | 496 kts | 153° |
| 2026-04-22 12:36 | 42.79599 | 18.38433 | 34996 ft | 496 kts | 154° |
| 2026-04-22 12:37 | 42.73671 | 18.43268 | 35017 ft | 497 kts | 154° |
| 2026-04-22 12:37 | 42.67743 | 18.48098 | 34991 ft | 496 kts | 154° |
| 2026-04-22 12:38 | 42.61804 | 18.52924 | 34993 ft | 497 kts | 154° |
| 2026-04-22 12:38 | 42.55866 | 18.57743 | 35005 ft | 497 kts | 154° |
| 2026-04-22 12:39 | 42.46944 | 18.64956 | 34992 ft | 498 kts | 155° |
| 2026-04-22 12:40 | 42.41024 | 18.69725 | 35010 ft | 499 kts | 155° |
| 2026-04-22 12:40 | 42.35048 | 18.74531 | 35013 ft | 500 kts | 155° |
| 2026-04-22 12:41 | 42.29024 | 18.79204 | 34975 ft | 494 kts | 162° |
| 2026-04-22 12:41 | 42.22621 | 18.82114 | 34979 ft | 483 kts | 173° |
| 2026-04-22 12:42 | 42.16113 | 18.84486 | 34991 ft | 485 kts | 173° |
| 2026-04-22 12:42 | 42.09590 | 18.86877 | 34994 ft | 486 kts | 173° |
| 2026-04-22 12:43 | 42.03061 | 18.89271 | 34987 ft | 487 kts | 173° |
| 2026-04-22 12:43 | 41.96492 | 18.91664 | 35016 ft | 490 kts | 173° |
| 2026-04-22 12:44 | 41.89911 | 18.94063 | 35020 ft | 490 kts | 173° |
| 2026-04-22 12:44 | 41.83336 | 18.96457 | 34987 ft | 489 kts | 174° |
| 2026-04-22 12:45 | 41.76767 | 18.98836 | 35002 ft | 488 kts | 173° |
| 2026-04-22 12:45 | 41.70203 | 19.01207 | 35013 ft | 488 kts | 173° |
| 2026-04-22 12:46 | 41.63643 | 19.03579 | 35015 ft | 488 kts | 173° |
| 2026-04-22 12:46 | 41.57129 | 19.05926 | 34977 ft | 488 kts | 174° |
| 2026-04-22 12:47 | 41.50564 | 19.08297 | 34989 ft | 488 kts | 174° |
| 2026-04-22 12:47 | 41.44032 | 19.10869 | 35005 ft | 495 kts | 168° |
| 2026-04-22 12:48 | 41.37571 | 19.14044 | 34969 ft | 495 kts | 168° |
| 2026-04-22 12:48 | 41.31114 | 19.17203 | 34985 ft | 494 kts | 168° |
| 2026-04-22 12:49 | 41.24661 | 19.20348 | 34983 ft | 494 kts | 168° |
| 2026-04-22 12:49 | 41.18210 | 19.23482 | 34990 ft | 494 kts | 168° |
| 2026-04-22 12:50 | 41.11753 | 19.26615 | 34987 ft | 494 kts | 168° |
| 2026-04-22 12:50 | 41.05302 | 19.29747 | 34987 ft | 494 kts | 168° |
| 2026-04-22 12:51 | 40.98836 | 19.32745 | 34988 ft | 487 kts | 174° |
| 2026-04-22 12:51 | 40.92277 | 19.34924 | 34949 ft | 485 kts | 175° |
| 2026-04-22 12:52 | 40.85715 | 19.37018 | 34962 ft | 485 kts | 175° |
| 2026-04-22 12:52 | 40.79144 | 19.39117 | 34969 ft | 485 kts | 175° |
| 2026-04-22 12:53 | 40.72588 | 19.41231 | 34943 ft | 485 kts | 175° |
| 2026-04-22 12:53 | 40.66020 | 19.43340 | 34965 ft | 485 kts | 175° |
| 2026-04-22 12:54 | 40.59499 | 19.45432 | 34968 ft | 486 kts | 175° |
| 2026-04-22 12:54 | 40.52894 | 19.47545 | 34976 ft | 485 kts | 175° |
| 2026-04-22 12:55 | 40.46393 | 19.49616 | 34965 ft | 484 kts | 175° |
| 2026-04-22 12:55 | 40.39847 | 19.51696 | 34967 ft | 484 kts | 175° |
| 2026-04-22 12:56 | 40.33311 | 19.53781 | 34956 ft | 484 kts | 175° |
| 2026-04-22 12:56 | 40.26775 | 19.55862 | 34915 ft | 483 kts | 174° |
| 2026-04-22 12:57 | 40.20236 | 19.57935 | 34922 ft | 483 kts | 174° |
| 2026-04-22 12:57 | 40.13706 | 19.59993 | 34926 ft | 483 kts | 174° |
| 2026-04-22 12:58 | 40.07162 | 19.62066 | 34902 ft | 484 kts | 174° |
| 2026-04-22 12:58 | 40.00618 | 19.64138 | 34916 ft | 484 kts | 174° |
| 2026-04-22 12:59 | 39.94061 | 19.66198 | 34925 ft | 484 kts | 174° |
| 2026-04-22 12:59 | 39.87498 | 19.68257 | 34920 ft | 484 kts | 174° |
| 2026-04-22 13:00 | 39.80949 | 19.70318 | 34924 ft | 484 kts | 173° |
| 2026-04-22 13:00 | 39.74403 | 19.72368 | 34937 ft | 483 kts | 174° |
| 2026-04-22 13:01 | 39.67863 | 19.74408 | 34949 ft | 483 kts | 174° |
| 2026-04-22 13:01 | 39.61326 | 19.76448 | 34929 ft | 482 kts | 173° |
| 2026-04-22 13:02 | 39.54835 | 19.78463 | 34945 ft | 482 kts | 173° |
| 2026-04-22 13:02 | 39.48320 | 19.80484 | 34955 ft | 481 kts | 173° |
| 2026-04-22 13:03 | 39.41812 | 19.82502 | 34964 ft | 480 kts | 173° |
| 2026-04-22 13:03 | 39.35331 | 19.84506 | 34956 ft | 478 kts | 173° |
| 2026-04-22 13:04 | 39.28870 | 19.86499 | 34962 ft | 477 kts | 173° |
| 2026-04-22 13:04 | 39.22422 | 19.88490 | 34967 ft | 476 kts | 173° |
| 2026-04-22 13:05 | 39.15980 | 19.90471 | 34943 ft | 475 kts | 173° |
| 2026-04-22 13:05 | 39.09588 | 19.92431 | 34957 ft | 474 kts | 173° |
| 2026-04-22 13:06 | 39.03164 | 19.94398 | 34966 ft | 474 kts | 173° |
| 2026-04-22 13:06 | 38.96749 | 19.96359 | 34967 ft | 474 kts | 173° |
| 2026-04-22 13:07 | 38.90336 | 19.98311 | 34962 ft | 473 kts | 173° |
| 2026-04-22 13:07 | 38.83922 | 20.00260 | 34728 ft | 474 kts | 173° |
| 2026-04-22 13:07 | 38.80715 | 20.01241 | 34139 ft | 477 kts | 173° |
| 2026-04-22 13:08 | 38.77485 | 20.02225 | 33489 ft | 476 kts | 173° |
| 2026-04-22 13:08 | 38.74269 | 20.03204 | 32882 ft | 474 kts | 173° |
| 2026-04-22 13:08 | 38.71066 | 20.04178 | 32260 ft | 471 kts | 173° |
| 2026-04-22 13:08 | 38.67885 | 20.05144 | 31711 ft | 468 kts | 173° |
| 2026-04-22 13:09 | 38.64723 | 20.06104 | 31113 ft | 466 kts | 173° |
| 2026-04-22 13:09 | 38.61564 | 20.07061 | 30548 ft | 464 kts | 173° |
| 2026-04-22 13:09 | 38.58427 | 20.08010 | 29964 ft | 462 kts | 173° |
| 2026-04-22 13:09 | 38.55303 | 20.08950 | 29350 ft | 459 kts | 173° |
| 2026-04-22 13:10 | 38.52247 | 20.09871 | 28817 ft | 455 kts | 173° |
| 2026-04-22 13:10 | 38.49175 | 20.10798 | 28252 ft | 451 kts | 173° |
| 2026-04-22 13:10 | 38.46132 | 20.11652 | 27702 ft | 443 kts | 179° |
| 2026-04-22 13:10 | 38.43119 | 20.11759 | 27184 ft | 425 kts | 193° |
| 2026-04-22 13:11 | 38.40294 | 20.10983 | 26718 ft | 408 kts | 207° |
| 2026-04-22 13:11 | 38.37782 | 20.09484 | 26272 ft | 391 kts | 219° |
| 2026-04-22 13:11 | 38.35601 | 20.07511 | 25836 ft | 382 kts | 223° |
| 2026-04-22 13:11 | 38.33400 | 20.05633 | 25417 ft | 380 kts | 219° |
| 2026-04-22 13:12 | 38.31119 | 20.03948 | 25004 ft | 378 kts | 216° |
| 2026-04-22 13:12 | 38.28765 | 20.02461 | 24598 ft | 377 kts | 212° |
| 2026-04-22 13:12 | 38.26347 | 20.01174 | 24176 ft | 376 kts | 207° |
| 2026-04-22 13:12 | 38.23884 | 20.00090 | 23820 ft | 374 kts | 204° |
| 2026-04-22 13:13 | 38.21373 | 19.99188 | 23391 ft | 375 kts | 201° |
| 2026-04-22 13:13 | 38.18826 | 19.98488 | 22948 ft | 374 kts | 197° |
| 2026-04-22 13:13 | 38.16260 | 19.97999 | 22531 ft | 372 kts | 193° |
| 2026-04-22 13:13 | 38.13680 | 19.97721 | 22119 ft | 372 kts | 189° |
| 2026-04-22 13:14 | 38.11098 | 19.97654 | 21694 ft | 371 kts | 186° |
| 2026-04-22 13:14 | 38.08517 | 19.97793 | 21273 ft | 371 kts | 182° |
| 2026-04-22 13:14 | 38.05950 | 19.98124 | 20829 ft | 371 kts | 178° |
| 2026-04-22 13:14 | 38.03408 | 19.98650 | 20415 ft | 370 kts | 174° |
| 2026-04-22 13:15 | 38.00893 | 19.99373 | 19972 ft | 371 kts | 171° |
| 2026-04-22 13:15 | 37.98408 | 20.00291 | 19511 ft | 372 kts | 168° |
| 2026-04-22 13:15 | 37.95954 | 20.01320 | 19088 ft | 371 kts | 166° |
| 2026-04-22 13:15 | 37.93545 | 20.02523 | 18633 ft | 373 kts | 161° |
| 2026-04-22 13:16 | 37.91213 | 20.03977 | 18163 ft | 375 kts | 156° |
| 2026-04-22 13:16 | 37.89711 | 20.05076 | 17830 ft | 376 kts | 153° |
| 2026-04-22 13:16 | 37.87524 | 20.06897 | 17368 ft | 376 kts | 149° |
| 2026-04-22 13:16 | 37.85428 | 20.08872 | 16911 ft | 376 kts | 145° |
| 2026-04-22 13:17 | 37.83430 | 20.10997 | 16461 ft | 375 kts | 141° |
| 2026-04-22 13:17 | 37.81538 | 20.13272 | 15993 ft | 375 kts | 137° |
| 2026-04-22 13:17 | 37.79760 | 20.15683 | 15563 ft | 375 kts | 133° |
| 2026-04-22 13:17 | 37.78104 | 20.18226 | 15109 ft | 375 kts | 129° |
| 2026-04-22 13:18 | 37.76582 | 20.20894 | 14664 ft | 375 kts | 125° |
| 2026-04-22 13:18 | 37.75218 | 20.23701 | 14212 ft | 374 kts | 116° |
| 2026-04-22 13:18 | 37.74455 | 20.26813 | 13798 ft | 371 kts | 95° |
| 2026-04-22 13:18 | 37.74380 | 20.30055 | 13347 ft | 367 kts | 87° |
| 2026-04-22 13:19 | 37.74399 | 20.33261 | 12922 ft | 364 kts | 87° |
| 2026-04-22 13:19 | 37.74427 | 20.36455 | 12501 ft | 361 kts | 87° |
| 2026-04-22 13:19 | 37.74454 | 20.39621 | 12078 ft | 359 kts | 87° |
| 2026-04-22 13:19 | 37.74478 | 20.42768 | 11652 ft | 357 kts | 88° |
| 2026-04-22 13:20 | 37.74498 | 20.45858 | 11234 ft | 355 kts | 88° |
| 2026-04-22 13:20 | 37.74516 | 20.48973 | 10806 ft | 354 kts | 88° |
| 2026-04-22 13:20 | 37.74532 | 20.52073 | 10379 ft | 352 kts | 88° |
| 2026-04-22 13:20 | 37.74547 | 20.55141 | 10158 ft | 344 kts | 88° |
| 2026-04-22 13:21 | 37.74556 | 20.58114 | 10030 ft | 332 kts | 88° |
| 2026-04-22 13:21 | 37.74562 | 20.60986 | 9880 ft | 322 kts | 88° |
| 2026-04-22 13:21 | 37.74569 | 20.63792 | 9603 ft | 318 kts | 88° |
| 2026-04-22 13:21 | 37.74576 | 20.66572 | 9281 ft | 312 kts | 88° |
| 2026-04-22 13:22 | 37.74581 | 20.69264 | 8972 ft | 301 kts | 88° |
| 2026-04-22 13:22 | 37.74583 | 20.71866 | 8665 ft | 291 kts | 89° |
| 2026-04-22 13:22 | 37.74585 | 20.74381 | 8402 ft | 280 kts | 88° |
| 2026-04-22 13:22 | 37.74586 | 20.76825 | 8103 ft | 276 kts | 88° |
| 2026-04-22 13:23 | 37.74588 | 20.79236 | 7796 ft | 273 kts | 89° |
| 2026-04-22 13:23 | 37.74589 | 20.81609 | 7472 ft | 267 kts | 89° |
| 2026-04-22 13:23 | 37.74610 | 20.83937 | 7097 ft | 262 kts | 83° |
| 2026-04-22 13:23 | 37.75119 | 20.86071 | 6733 ft | 249 kts | 57° |
| 2026-04-22 13:24 | 37.76213 | 20.87652 | 6382 ft | 232 kts | 32° |
| 2026-04-22 13:24 | 37.77596 | 20.88499 | 6025 ft | 214 kts | 10° |
| 2026-04-22 13:24 | 37.79026 | 20.88679 | 5734 ft | 201 kts | 357° |
| 2026-04-22 13:24 | 37.80399 | 20.88734 | 5481 ft | 194 kts | 358° |
| 2026-04-22 13:25 | 37.81739 | 20.88797 | 5226 ft | 192 kts | 358° |
| 2026-04-22 13:25 | 37.83070 | 20.88856 | 4981 ft | 191 kts | 358° |
| 2026-04-22 13:25 | 37.84392 | 20.88914 | 4746 ft | 190 kts | 358° |
| 2026-04-22 13:25 | 37.85709 | 20.88973 | 4516 ft | 189 kts | 359° |
| 2026-04-22 13:26 | 37.87029 | 20.89033 | 4287 ft | 190 kts | 359° |
| 2026-04-22 13:26 | 37.88332 | 20.89080 | 4051 ft | 189 kts | 355° |
| 2026-04-22 13:26 | 37.89515 | 20.88521 | 3802 ft | 183 kts | 317° |
| 2026-04-22 13:26 | 37.90124 | 20.87150 | 3595 ft | 183 kts | 279° |
| 2026-04-22 13:27 | 37.89908 | 20.85592 | 3403 ft | 184 kts | 242° |
| 2026-04-22 13:27 | 37.88942 | 20.84547 | 3262 ft | 188 kts | 205° |
| 2026-04-22 13:27 | 37.87676 | 20.84114 | 3071 ft | 190 kts | 189° |
| 2026-04-22 13:27 | 37.86355 | 20.84225 | 2795 ft | 191 kts | 168° |
| 2026-04-22 13:28 | 37.85132 | 20.84680 | 2459 ft | 176 kts | 166° |
| 2026-04-22 13:28 | 37.84011 | 20.85091 | 2166 ft | 159 kts | 167° |
| 2026-04-22 13:28 | 37.82982 | 20.85462 | 1889 ft | 150 kts | 166° |
| 2026-04-22 13:28 | 37.81998 | 20.85816 | 1645 ft | 145 kts | 166° |
| 2026-04-22 13:29 | 37.81041 | 20.86160 | 1344 ft | 141 kts | 166° |
| 2026-04-22 13:29 | 37.80094 | 20.86512 | 1102 ft | 142 kts | 165° |
| 2026-04-22 13:29 | 37.79158 | 20.86869 | 895 ft | 140 kts | 164° |
| 2026-04-22 13:29 | 37.78246 | 20.87249 | 654 ft | 136 kts | 163° |
| 2026-04-22 13:30 | 37.77343 | 20.87590 | 406 ft | 135 kts | 163° |
| 2026-04-22 13:30 | 37.76446 | 20.87916 | 162 ft | 133 kts | 163° |
| 2026-04-22 13:30 | 37.75571 | 20.88248 | 26 ft | 125 kts | 163° |
| 2026-04-22 13:30 | 37.74969 | 20.88473 | 18 ft | 52 kts | 163° |
| 2026-04-22 13:31 | 37.74736 | 20.88559 | 21 ft | 18 kts | 164° |
| 2026-04-22 13:31 | 37.74643 | 20.88588 | 21 ft | 11 kts | 186° |
| 2026-04-22 13:31 | 37.74591 | 20.88612 | 21 ft | 6 kts | 93° |
| 2026-04-22 13:31 | 37.74626 | 20.88623 | 21 ft | 8 kts | 334° |
| 2026-04-22 13:32 | 37.74701 | 20.88578 | 21 ft | 15 kts | 336° |
| 2026-04-22 13:32 | 37.74796 | 20.88537 | 20 ft | 15 kts | 343° |
| 2026-04-22 13:32 | 37.74899 | 20.88497 | 20 ft | 16 kts | 343° |
| 2026-04-22 13:32 | 37.75003 | 20.88458 | 18 ft | 15 kts | 344° |
| 2026-04-22 13:33 | 37.75097 | 20.88424 | 20 ft | 13 kts | 343° |
| 2026-04-22 13:33 | 37.75180 | 20.88393 | 19 ft | 12 kts | 343° |
| 2026-04-22 13:33 | 37.75246 | 20.88413 | 21 ft | 10 kts | 36° |
| 2026-04-22 13:33 | 37.75302 | 20.88453 | 20 ft | 11 kts | 14° |
| 2026-04-22 13:34 | 37.75378 | 20.88439 | 22 ft | 11 kts | 344° |
| 2026-04-22 13:34 | 37.75430 | 20.88432 | 20 ft | 5 kts | 27° |
| 2026-04-22 13:34 | 37.75439 | 20.88467 | 20 ft | 4 kts | 78° |
| 2026-04-22 13:34 | 37.75446 | 20.88498 | 22 ft | 3 kts | 73° |
| 2026-04-22 13:35 | 37.75448 | 20.88505 | 20 ft | 0 kts | 73° |